Time;durP1;ratioP1;P1;durP2;ratioP2;P2;SDS_P1;SDS_P2;PMS_P1;PMS_P2;Temp;Humidity;BMP_temperature;BMP_pressure;BME280_temperature;BME280_humidity;BME280_pressure;Samples;Min_cycle;Max_cycle;Signal;HPM_P1;HPM_P2
2022/01/16 00:01:06;;;;;;;;;59.25;42.50;;;;;5.20;55.82;102340.97;5037067;28;45523;-88
2022/01/16 00:06:17;;;;;;;;;48.00;39.75;;;;;5.43;55.55;102358.66;5038420;28;45530;-88
2022/01/16 00:08:43;;;;;;;;;51.75;41.50;;;;;5.14;55.17;102308.31;5038082;28;45377;-88
2022/01/16 00:11:11;;;;;;;;;54.00;42.75;;;;;4.78;55.45;102252.69;5037859;28;45308;-89
2022/01/16 00:13:36;;;;;;;;;59.50;44.50;;;;;4.71;55.66;102237.69;5037923;28;45467;-89
2022/01/16 00:16:02;;;;;;;;;54.00;39.25;;;;;4.61;55.70;102263.19;5037673;28;45444;-88
2022/01/16 00:18:39;;;;;;;;;55.25;44.75;;;;;5.07;55.32;102333.84;5032799;28;45629;-88
2022/01/16 00:21:05;;;;;;;;;57.75;45.50;;;;;5.12;55.44;102331.22;5033218;28;45523;-88
2022/01/16 00:23:30;;;;;;;;;51.25;41.25;;;;;4.52;55.42;102233.19;5037249;28;45380;-88
2022/01/16 00:25:56;;;;;;;;;51.50;44.50;;;;;5.32;55.55;102377.13;5021615;28;45460;-88
2022/01/16 00:28:23;;;;;;;;;49.00;37.75;;;;;5.21;55.23;102370.91;5033174;28;45537;-89
2022/01/16 00:30:50;;;;;;;;;51.00;40.50;;;;;4.44;55.55;102272.75;5019718;28;46016;-88
2022/01/16 00:33:15;;;;;;;;;54.25;42.00;;;;;4.98;55.20;102374.31;5019133;28;45503;-88
2022/01/16 00:35:41;;;;;;;;;56.50;44.00;;;;;4.44;55.62;102307.06;5020040;28;45335;-89
2022/01/16 00:38:07;;;;;;;;;53.75;43.50;;;;;4.74;55.86;102339.81;5037007;28;45524;-89
2022/01/16 00:40:33;;;;;;;;;54.75;44.00;;;;;4.42;55.68;102264.84;5018924;28;45405;-88
2022/01/16 00:42:58;;;;;;;;;52.00;41.50;;;;;5.16;55.78;102362.94;5037565;28;45486;-88
2022/01/16 00:45:25;;;;;;;;;49.50;39.75;;;;;4.82;55.54;102306.41;5024777;28;45456;-88
2022/01/16 00:47:51;;;;;;;;;52.25;42.00;;;;;4.60;55.59;102273.72;5029723;28;45482;-88
2022/01/16 00:50:16;;;;;;;;;53.25;43.00;;;;;4.28;55.38;102226.00;5036714;28;45524;-89
2022/01/16 00:52:42;;;;;;;;;57.00;44.75;;;;;4.83;55.42;102335.47;5037650;28;45403;-88
2022/01/16 00:55:09;;;;;;;;;48.50;41.00;;;;;4.20;55.41;102223.31;5019765;28;45415;-88
2022/01/16 00:57:34;;;;;;;;;64.50;47.25;;;;;4.59;56.08;102304.53;5036820;28;46444;-88
2022/01/16 01:00:00;;;;;;;;;57.00;44.25;;;;;5.04;56.09;102386.69;5019427;28;45539;-88
2022/01/16 01:02:28;;;;;;;;;51.75;41.00;;;;;4.57;55.99;102335.31;5019256;28;45444;-88
2022/01/16 01:04:53;;;;;;;;;54.50;43.50;;;;;5.19;55.32;102439.59;5037771;28;45496;-88
2022/01/16 01:07:19;;;;;;;;;56.00;42.25;;;;;4.77;56.27;102368.88;5036727;28;46687;-88
2022/01/16 01:09:44;;;;;;;;;56.00;44.00;;;;;4.93;55.61;102399.81;5036488;28;45340;-89
2022/01/16 01:12:13;;;;;;;;;52.75;40.50;;;;;4.50;55.68;102346.72;5019382;28;45542;-89
2022/01/16 01:15:03;;;;;;;;;56.00;43.75;;;;;4.85;56.14;102410.34;5036554;28;45336;-88
2022/01/16 01:17:27;;;;;;;;;53.00;43.50;;;;;4.06;55.85;102249.63;5036551;28;45931;-88
2022/01/16 01:19:53;;;;;;;;;53.25;42.00;;;;;5.06;56.53;102427.22;5036407;28;45490;-88
2022/01/16 01:22:18;;;;;;;;;59.25;46.75;;;;;3.88;56.57;102191.44;5019329;28;45357;-89
2022/01/16 01:24:44;;;;;;;;;58.25;44.00;;;;;4.72;56.67;102310.75;5037014;28;45369;-88
2022/01/16 01:27:23;;;;;;;;;54.50;45.00;;;;;4.22;56.74;102209.25;5019160;28;47171;-88
2022/01/16 01:29:58;;;;;;;;;57.50;45.00;;;;;4.66;56.95;102292.25;5036175;28;45614;-88
2022/01/16 01:32:24;;;;;;;;;52.00;39.50;;;;;4.13;57.62;102176.66;5036941;28;45462;-88
2022/01/16 01:34:49;;;;;;;;;57.00;43.50;;;;;4.32;57.53;102241.00;5018986;28;45588;-86
2022/01/16 01:37:14;;;;;;;;;49.75;42.00;;;;;4.95;57.52;102376.06;5018990;28;46113;-88
2022/01/16 01:39:40;;;;;;;;;59.00;45.50;;;;;4.95;58.03;102407.75;5035889;28;45310;-88
2022/01/16 01:42:09;;;;;;;;;61.00;43.50;;;;;4.71;57.91;102363.59;5018949;28;45389;-88
2022/01/16 01:52:50;;;;;;;;;52.75;40.75;;;;;4.13;58.39;102296.28;5036534;28;45309;-88
2022/01/16 01:55:16;;;;;;;;;56.75;43.50;;;;;4.70;58.59;102404.94;5019196;28;45403;-88
2022/01/16 01:57:41;;;;;;;;;52.75;40.25;;;;;4.99;58.72;102438.63;5018404;28;47373;-88
2022/01/16 02:00:08;;;;;;;;;57.00;46.25;;;;;3.83;58.58;102265.25;5036239;28;45388;-86
2022/01/16 02:02:45;;;;;;;;;57.00;41.75;;;;;4.50;58.44;102383.69;5018923;28;45553;-88
2022/01/16 02:05:11;;;;;;;;;58.50;42.75;;;;;4.29;58.78;102359.75;5018928;28;45620;-88
2022/01/16 02:07:36;;;;;;;;;58.25;44.25;;;;;3.93;59.27;102288.22;5036402;28;46058;-89
2022/01/16 02:10:03;;;;;;;;;56.50;43.25;;;;;4.66;59.10;102434.84;5026588;28;45483;-88
2022/01/16 02:12:30;;;;;;;;;54.50;40.25;;;;;4.33;59.32;102377.34;5030202;28;45407;-89
2022/01/16 02:15:08;;;;;;;;;55.75;40.00;;;;;3.57;59.47;102257.09;5018121;28;45474;-88
2022/01/16 02:28:59;;;;;;;;;56.75;44.25;;;;;4.31;59.81;102372.09;5035846;28;45384;-89
2022/01/16 02:31:25;;;;;;;;;50.50;40.00;;;;;3.91;59.38;102302.22;5016245;28;46023;-90
2022/01/16 02:36:45;;;;;;;;;52.50;42.00;;;;;3.99;59.74;102301.44;5016574;28;45395;-90
2022/01/16 02:39:13;;;;;;;;;52.25;40.75;;;;;4.69;59.62;102419.03;4998331;28;47999;-90
2022/01/16 02:41:40;;;;;;;;;48.50;38.50;;;;;4.29;60.03;102342.16;5015997;28;45555;-90
2022/01/16 02:46:41;;;;;;;;;42.50;35.25;;;;;4.82;59.93;102430.56;5035884;28;45690;-89
2022/01/16 02:49:24;;;;;;;;;59.50;42.00;;;;;3.89;59.36;102256.53;5017284;28;48289;-89
2022/01/16 02:51:52;;;;;;;;;56.75;45.75;;;;;4.72;59.89;102389.13;5018669;28;45408;-89
2022/01/16 02:54:19;;;;;;;;;56.25;42.75;;;;;4.33;59.73;102325.47;5021366;28;45255;-89
2022/01/16 02:56:45;;;;;;;;;56.25;44.75;;;;;5.00;59.55;102429.81;5039295;28;45565;-89
2022/01/16 02:59:12;;;;;;;;;58.75;42.25;;;;;4.76;59.53;102393.56;5038661;28;46671;-89
2022/01/16 03:01:38;;;;;;;;;56.25;40.75;;;;;4.97;59.38;102422.75;5021208;28;45940;-89
2022/01/16 03:04:05;;;;;;;;;50.75;41.00;;;;;4.90;59.39;102422.72;5039048;28;45277;-89
2022/01/16 03:06:30;;;;;;;;;53.25;43.50;;;;;4.47;59.02;102356.34;5017934;28;45403;-89
2022/01/16 03:08:55;;;;;;;;;52.50;42.00;;;;;3.82;59.13;102226.56;4999887;28;47338;-88
2022/01/16 03:11:27;;;;;;;;;47.75;38.00;;;;;4.27;59.30;102301.66;5037852;28;45388;-88
2022/01/16 03:13:53;;;;;;;;;53.00;40.00;;;;;4.22;59.47;102306.03;5021607;28;45523;-89
2022/01/16 03:16:21;;;;;;;;;52.00;42.00;;;;;4.31;59.14;102314.03;5021335;28;45518;-88
2022/01/16 03:24:16;;;;;;;;;52.75;42.50;;;;;4.40;59.37;102310.53;5018995;28;45501;-90
2022/01/16 03:26:42;;;;;;;;;60.00;45.00;;;;;4.89;59.55;102392.72;5018954;28;45342;-89
2022/01/16 03:29:07;;;;;;;;;60.00;44.25;;;;;5.15;59.63;102418.44;5004788;28;47225;-89
2022/01/16 03:31:32;;;;;;;;;54.75;41.00;;;;;4.40;59.53;102306.16;5038789;28;45440;-89
2022/01/16 03:33:58;;;;;;;;;50.25;40.00;;;;;4.47;59.60;102300.91;5038562;28;45464;-89
2022/01/16 03:36:23;;;;;;;;;56.25;44.50;;;;;4.53;59.71;102315.03;5039092;28;45610;-89
2022/01/16 03:38:49;;;;;;;;;59.75;46.25;;;;;4.27;59.45;102272.63;5034026;28;46569;-89
2022/01/16 03:41:14;;;;;;;;;57.00;44.00;;;;;4.79;59.41;102344.25;5020893;28;46018;-90
2022/01/16 03:43:39;;;;;;;;;56.75;43.50;;;;;5.23;59.16;102411.44;5038852;28;45237;-89
2022/01/16 03:46:05;;;;;;;;;55.75;46.50;;;;;5.22;59.62;102412.31;5037419;28;45617;-89
2022/01/16 03:48:30;;;;;;;;;56.50;44.75;;;;;4.56;59.16;102316.81;5020271;28;48099;-89
2022/01/16 03:50:56;;;;;;;;;54.00;44.75;;;;;4.52;59.36;102317.66;5020617;28;45457;-89
2022/01/16 03:53:21;;;;;;;;;56.25;43.50;;;;;4.59;59.80;102338.84;5038013;28;45465;-89
2022/01/16 03:55:48;;;;;;;;;54.50;41.00;;;;;4.25;59.75;102291.97;5020804;28;45552;-89
2022/01/16 03:58:14;;;;;;;;;55.00;46.00;;;;;4.64;59.43;102345.06;5020407;28;48011;-89
2022/01/16 04:00:39;;;;;;;;;56.50;45.75;;;;;4.49;59.30;102344.06;5020324;28;45455;-89
2022/01/16 04:03:05;;;;;;;;;57.25;44.00;;;;;4.12;59.69;102276.06;5020168;28;45491;-90
2022/01/16 04:05:30;;;;;;;;;51.75;40.50;;;;;4.23;59.51;102292.81;5007541;28;45455;-89
2022/01/16 04:07:58;;;;;;;;;54.00;42.25;;;;;4.33;60.03;102321.94;5032616;28;46168;-89
2022/01/16 04:10:23;;;;;;;;;59.25;45.00;;;;;5.07;60.15;102439.53;5019704;28;45552;-89
2022/01/16 04:12:49;;;;;;;;;55.00;39.75;;;;;5.06;60.32;102445.72;5020424;28;45313;-89
2022/01/16 04:17:41;;;;;;;;;53.50;39.50;;;;;4.59;60.39;102385.50;5038051;28;46033;-89
2022/01/16 04:20:06;;;;;;;;;57.75;41.00;;;;;4.76;59.92;102418.19;5020239;28;45447;-89
2022/01/16 04:22:32;;;;;;;;;53.75;41.50;;;;;4.57;60.04;102403.97;5020181;28;45379;-89
2022/01/16 04:24:57;;;;;;;;;51.50;42.50;;;;;4.15;59.95;102328.84;5038215;28;45289;-89
2022/01/16 04:27:23;;;;;;;;;57.25;43.75;;;;;4.33;60.16;102362.44;5018671;28;47898;-88
2022/01/16 04:29:48;;;;;;;;;58.25;45.00;;;;;4.34;59.83;102374.75;5037098;28;45459;-89
2022/01/16 04:32:13;;;;;;;;;54.00;44.00;;;;;4.30;59.72;102359.75;5018666;28;45516;-89
2022/01/16 04:34:39;;;;;;;;;52.00;43.25;;;;;4.75;60.36;102442.84;5007229;28;45532;-88
2022/01/16 04:37:06;;;;;;;;;45.25;39.00;;;;;4.81;59.78;102447.28;5014989;28;48286;-89
2022/01/16 04:39:33;;;;;;;;;52.00;40.50;;;;;4.59;60.15;102431.28;5019080;28;45392;-88
2022/01/16 04:44:44;;;;;;;;;47.75;37.00;;;;;4.79;60.68;102473.69;5029778;28;45234;-89
2022/01/16 04:47:11;;;;;;;;;53.00;41.25;;;;;4.02;60.21;102322.56;5037435;28;46494;-89
2022/01/16 04:49:36;;;;;;;;;53.25;40.75;;;;;3.75;60.35;102275.75;5037411;28;45429;-89
2022/01/16 04:52:02;;;;;;;;;51.75;39.75;;;;;5.00;60.18;102511.72;5037744;28;45575;-89
2022/01/16 04:54:27;;;;;;;;;51.50;40.00;;;;;3.88;60.62;102323.31;5037268;28;45831;-89
2022/01/16 04:56:53;;;;;;;;;47.75;40.25;;;;;4.16;60.72;102379.84;5019430;28;48303;-89
2022/01/16 04:59:20;;;;;;;;;44.50;36.25;;;;;4.36;60.73;102417.00;5037376;28;45872;-89
2022/01/16 05:01:46;;;;;;;;;50.50;41.00;;;;;4.78;61.03;102473.69;5018921;28;45420;-89
2022/01/16 05:04:12;;;;;;;;;47.75;36.75;;;;;4.35;60.98;102397.63;5018054;28;45495;-89
2022/01/16 05:06:37;;;;;;;;;49.75;38.50;;;;;4.98;60.81;102493.19;5017540;28;45435;-89
2022/01/16 05:09:03;;;;;;;;;51.50;40.00;;;;;4.86;60.72;102503.69;5018656;28;45372;-89
2022/01/16 05:11:29;;;;;;;;;41.75;36.25;;;;;4.67;61.17;102460.38;5017183;28;45389;-89
2022/01/16 05:16:37;;;;;;;;;42.50;35.25;;;;;4.85;60.91;102504.56;5021842;28;46276;-88
2022/01/16 05:19:05;;;;;;;;;39.25;35.00;;;;;4.35;60.92;102445.13;5019258;28;45731;-89
2022/01/16 05:21:30;;;;;;;;;34.25;33.50;;;;;4.45;60.92;102464.59;5027999;28;45414;-89
2022/01/16 05:23:56;;;;;;;;;39.25;33.25;;;;;4.29;61.47;102437.16;5019324;28;45550;-89
2022/01/16 05:26:28;;;;;;;;;39.50;31.00;;;;;4.31;61.22;102460.91;5036828;28;46422;-89
2022/01/16 05:28:55;;;;;;;;;37.00;33.50;;;;;3.91;61.22;102399.81;5018734;28;45381;-89
2022/01/16 05:31:21;;;;;;;;;41.75;35.00;;;;;4.57;61.58;102528.09;5014273;28;45243;-89
2022/01/16 05:33:46;;;;;;;;;34.50;31.75;;;;;4.10;61.54;102438.75;5017373;28;45656;-89
2022/01/16 05:36:12;;;;;;;;;42.25;32.75;;;;;4.25;62.03;102461.75;5016699;28;45456;-89
2022/01/16 05:38:37;;;;;;;;;34.25;30.25;;;;;4.05;61.71;102405.25;4998840;28;45626;-90
2022/01/16 05:41:02;;;;;;;;;48.00;36.00;;;;;3.86;62.04;102388.34;4999413;28;45597;-89
2022/01/16 05:43:28;;;;;;;;;38.50;31.50;;;;;4.48;62.44;102509.50;4999362;28;45475;-89
2022/01/16 05:45:53;;;;;;;;;43.50;34.75;;;;;4.05;62.46;102448.38;4998785;28;47317;-89
2022/01/16 05:48:19;;;;;;;;;43.50;38.25;;;;;3.86;61.91;102410.31;4999171;28;45511;-88
2022/01/16 05:50:44;;;;;;;;;35.00;29.50;;;;;4.49;61.82;102513.91;5016491;28;45392;-89
2022/01/16 05:53:10;;;;;;;;;28.75;25.00;;;;;4.15;62.33;102438.78;4999445;28;45692;-88
2022/01/16 05:55:38;;;;;;;;;32.25;30.00;;;;;3.93;62.15;102393.72;5016294;28;46328;-88
2022/01/16 05:58:05;;;;;;;;;24.25;23.75;;;;;3.81;61.93;102361.94;5016816;28;45487;-89
2022/01/16 06:00:31;;;;;;;;;32.25;28.50;;;;;3.20;62.09;102240.91;5031453;28;45516;-89
2022/01/16 06:02:57;;;;;;;;;45.50;34.50;;;;;4.41;62.08;102476.88;5019018;28;45418;-90
2022/01/16 06:05:22;;;;;;;;;45.50;35.50;;;;;3.98;62.48;102401.66;5035346;28;45457;-89
2022/01/16 06:07:54;;;;;;;;;44.00;34.25;;;;;4.23;61.90;102439.72;5018373;28;45419;-89
2022/01/16 06:10:19;;;;;;;;;30.75;28.00;;;;;3.95;61.67;102402.50;5018746;28;45309;-90
2022/01/16 06:12:46;;;;;;;;;31.00;28.25;;;;;4.63;62.20;102507.00;5018965;28;45475;-90
2022/01/16 06:15:11;;;;;;;;;26.75;25.00;;;;;4.60;61.97;102514.03;5018518;28;47194;-89
2022/01/16 06:17:37;;;;;;;;;32.75;27.75;;;;;3.87;61.76;102387.50;5018247;28;45425;-90
2022/01/16 06:20:03;;;;;;;;;30.50;24.25;;;;;4.23;62.21;102464.38;5013142;28;45499;-89
2022/01/16 06:22:28;;;;;;;;;39.00;27.50;;;;;3.99;61.98;102406.09;5023445;28;45518;-90
2022/01/16 06:24:53;;;;;;;;;32.50;27.00;;;;;4.88;62.04;102580.31;5010173;28;47238;-90
2022/01/16 06:27:19;;;;;;;;;30.25;27.50;;;;;4.00;62.20;102403.47;5035591;28;45626;-90
2022/01/16 06:29:44;;;;;;;;;26.00;23.75;;;;;4.85;61.91;102550.34;5019054;28;45407;-90
2022/01/16 06:32:09;;;;;;;;;34.75;28.25;;;;;4.27;62.06;102445.94;5021380;28;45488;-89
2022/01/16 06:34:35;;;;;;;;;24.25;22.00;;;;;4.18;62.17;102415.94;5031748;28;45428;-88
2022/01/16 06:37:00;;;;;;;;;30.25;29.75;;;;;4.75;61.78;102514.19;5022858;28;45722;-89
2022/01/16 06:39:28;;;;;;;;;31.25;27.00;;;;;4.90;62.10;102542.47;5042566;28;45380;-88
2022/01/16 06:41:54;;;;;;;;;27.75;27.25;;;;;4.30;61.76;102430.13;5039906;28;45618;-89
2022/01/16 06:44:20;;;;;;;;;34.25;21.50;;;;;3.76;61.86;102346.06;5038995;28;45662;-90
2022/01/16 06:46:45;;;;;;;;;26.00;24.25;;;;;4.01;62.34;102392.03;5039475;28;45376;-90
2022/01/16 06:49:12;;;;;;;;;26.25;25.00;;;;;4.18;62.53;102429.13;5039419;28;45758;-89
2022/01/16 06:51:37;;;;;;;;;27.75;25.75;;;;;4.74;62.15;102527.34;5039677;28;45580;-89
2022/01/16 06:54:03;;;;;;;;;33.50;27.00;;;;;4.23;62.53;102437.09;5038294;28;46076;-89
2022/01/16 06:56:29;;;;;;;;;35.75;27.50;;;;;4.30;62.67;102452.13;5032946;28;45413;-90
2022/01/16 06:58:55;;;;;;;;;34.00;28.75;;;;;4.44;62.33;102492.72;5021270;28;45364;-89
2022/01/16 07:01:21;;;;;;;;;35.00;26.50;;;;;4.68;62.39;102532.56;5039472;28;45343;-89
2022/01/16 07:03:46;;;;;;;;;34.75;26.50;;;;;4.96;62.16;102570.69;5035593;28;45418;-91
2022/01/16 07:06:12;;;;;;;;;26.50;25.00;;;;;5.01;61.73;102566.31;5030810;28;45334;-91
2022/01/16 07:08:37;;;;;;;;;33.00;27.25;;;;;4.56;61.76;102493.72;5018129;28;45515;-91
2022/01/16 07:11:03;;;;;;;;;27.00;25.50;;;;;5.35;62.04;102611.56;5017341;28;45414;-88
2022/01/16 07:13:29;;;;;;;;;28.00;23.50;;;;;4.00;61.42;102392.91;5038662;28;45388;-90
2022/01/16 07:15:55;;;;;;;;;28.25;24.75;;;;;4.79;62.04;102515.06;5039680;28;45376;-91
2022/01/16 07:18:21;;;;;;;;;30.50;23.25;;;;;5.13;62.03;102550.59;5021550;28;45294;-93
2022/01/16 07:20:46;;;;;;;;;28.75;28.75;;;;;4.90;61.79;102515.19;5021692;28;45507;-92
2022/01/16 07:23:13;;;;;;;;;28.50;23.25;;;;;5.40;61.64;102613.34;5020435;28;47177;-90
2022/01/16 07:25:40;;;;;;;;;26.00;24.50;;;;;4.15;61.43;102408.00;5038259;28;45388;-89
2022/01/16 07:28:06;;;;;;;;;32.00;23.25;;;;;4.92;61.11;102546.00;5038502;28;45517;-88
2022/01/16 07:30:32;;;;;;;;;25.00;24.00;;;;;4.77;61.79;102535.28;5038675;28;45389;-89
2022/01/16 07:32:57;;;;;;;;;21.50;19.25;;;;;4.80;61.64;102522.09;5037124;28;45437;-89
2022/01/16 07:35:22;;;;;;;;;29.00;25.75;;;;;5.26;61.80;102586.81;5019871;28;45485;-87
2022/01/16 07:37:48;;;;;;;;;34.25;29.25;;;;;5.16;61.54;102581.44;5030620;28;45416;-88
2022/01/16 07:40:14;;;;;;;;;25.50;21.50;;;;;5.44;61.49;102620.44;5028531;28;45418;-89
2022/01/16 07:42:40;;;;;;;;;25.25;23.50;;;;;4.94;61.02;102536.34;5020197;28;47408;-89
2022/01/16 07:45:06;;;;;;;;;27.75;24.25;;;;;4.76;60.78;102484.22;5020550;28;45286;-89
2022/01/16 07:47:31;;;;;;;;;31.25;24.25;;;;;5.74;60.95;102634.78;5031947;28;45538;-89
2022/01/16 07:49:57;;;;;;;;;27.00;21.25;;;;;4.95;61.00;102495.84;5039030;28;45598;-89
2022/01/16 07:52:23;;;;;;;;;25.00;23.00;;;;;4.85;60.46;102480.78;5033121;28;45589;-89
2022/01/16 07:54:48;;;;;;;;;29.50;23.75;;;;;5.23;60.62;102536.56;5023071;28;45526;-92
2022/01/16 07:57:13;;;;;;;;;22.50;22.00;;;;;4.90;60.84;102489.63;5037729;28;45419;-90
2022/01/16 07:59:39;;;;;;;;;29.00;26.00;;;;;5.30;60.69;102548.06;5037186;28;45491;-89
2022/01/16 08:02:04;;;;;;;;;25.75;22.25;;;;;5.41;60.26;102532.28;5032289;28;47319;-89
2022/01/16 08:04:30;;;;;;;;;29.25;24.00;;;;;5.18;60.56;102497.78;5035758;28;45329;-89
2022/01/16 08:06:55;;;;;;;;;30.00;26.00;;;;;5.47;60.51;102541.13;5039318;28;45414;-89
2022/01/16 08:09:20;;;;;;;;;31.50;26.00;;;;;5.76;60.37;102587.16;5038092;28;45502;-87
2022/01/16 08:11:46;;;;;;;;;26.00;21.75;;;;;5.46;60.41;102531.44;5036725;28;46967;-86
2022/01/16 08:14:11;;;;;;;;;23.25;20.00;;;;;5.62;60.15;102568.53;5038249;28;45567;-86
2022/01/16 08:16:37;;;;;;;;;26.25;22.00;;;;;5.50;60.10;102541.16;5036239;28;45258;-87
2022/01/16 08:19:02;;;;;;;;;31.50;24.50;;;;;5.91;60.10;102609.28;5037279;28;45246;-88
2022/01/16 08:21:28;;;;;;;;;23.25;20.25;;;;;5.61;60.28;102557.09;5036894;28;46482;-89
2022/01/16 08:23:53;;;;;;;;;26.25;22.25;;;;;5.45;59.83;102521.72;5036658;28;45499;-90
2022/01/16 08:26:18;;;;;;;;;23.00;21.25;;;;;5.72;60.26;102558.03;5036749;28;45320;-89
2022/01/16 08:28:44;;;;;;;;;30.00;24.75;;;;;5.19;60.38;102467.81;5038134;28;45213;-89
2022/01/16 08:31:09;;;;;;;;;37.00;27.50;;;;;5.63;60.95;102544.75;5036331;28;48448;-90
2022/01/16 08:33:34;;;;;;;;;26.50;24.75;;;;;5.33;60.98;102475.81;5038093;28;45286;-91
2022/01/16 08:36:00;;;;;;;;;27.25;22.50;;;;;5.66;60.56;102530.66;5036577;28;45203;-91
2022/01/16 08:38:27;;;;;;;;;29.75;21.75;;;;;6.33;60.67;102634.25;5037665;28;45271;-92
2022/01/16 08:40:53;;;;;;;;;25.00;21.00;;;;;6.36;60.49;102622.78;5039021;28;45557;-91
2022/01/16 08:43:18;;;;;;;;;21.50;20.25;;;;;6.38;60.73;102654.59;5038241;28;45389;-91
2022/01/16 08:45:44;;;;;;;;;22.75;20.75;;;;;5.04;60.45;102434.25;5038384;28;45917;-91
2022/01/16 08:48:09;;;;;;;;;30.25;23.00;;;;;5.57;60.67;102528.88;5000831;28;45460;-89
2022/01/16 08:50:37;;;;;;;;;26.00;22.25;;;;;5.02;60.72;102430.72;5017249;28;45533;-89
2022/01/16 08:53:03;;;;;;;;;18.75;14.50;;;;;6.16;60.62;102617.41;4999669;28;45382;-89
2022/01/16 08:55:29;;;;;;;;;20.75;20.50;;;;;5.58;60.89;102549.13;4999112;28;45416;-89
2022/01/16 08:57:55;;;;;;;;;21.25;19.00;;;;;5.53;60.38;102537.66;4999768;28;45540;-89
2022/01/16 09:00:20;;;;;;;;;23.00;19.75;;;;;5.36;60.25;102499.63;4998626;28;47454;-91
2022/01/16 09:02:45;;;;;;;;;23.50;22.00;;;;;6.36;60.79;102683.69;4998935;28;45855;-89
2022/01/16 09:05:11;;;;;;;;;19.00;19.00;;;;;5.86;60.00;102589.00;5017102;28;45407;-88
2022/01/16 09:07:36;;;;;;;;;26.00;24.25;;;;;5.61;60.42;102524.47;5016414;28;45600;-86
2022/01/16 09:10:03;;;;;;;;;25.00;21.00;;;;;6.29;60.43;102618.34;5015239;28;46573;-89
2022/01/16 09:12:32;;;;;;;;;31.00;24.75;;;;;5.66;59.96;102528.00;4998688;28;45797;-89
2022/01/16 09:14:57;;;;;;;;;26.00;21.50;;;;;6.03;59.93;102566.16;4997963;28;45514;-91
2022/01/16 09:17:24;;;;;;;;;25.50;21.00;;;;;5.87;59.95;102530.75;4996668;28;45604;-90
2022/01/16 09:19:49;;;;;;;;;20.67;19.33;;;;;6.61;59.67;102671.47;5010717;28;45495;-91
2022/01/16 09:22:16;;;;;;;;;25.67;19.33;;;;;6.58;59.22;102666.16;5017254;28;45489;-90
2022/01/16 09:24:41;;;;;;;;;40.50;36.00;;;;;5.72;59.39;102517.47;5015727;28;45229;-85
2022/01/16 09:27:07;;;;;;;;;19.75;16.75;;;;;5.75;59.36;102504.25;5017075;28;45482;-91
2022/01/16 09:29:32;;;;;;;;;40.25;34.50;;;;;5.41;59.03;102427.41;4995996;28;48180;-87
2022/01/16 09:31:58;;;;;;;;;28.75;27.25;;;;;6.15;59.35;102560.03;5012048;28;45497;-89
2022/01/16 09:34:23;;;;;;;;;21.50;21.50;;;;;6.08;58.72;102540.59;5015869;28;45513;-86
2022/01/16 09:36:48;;;;;;;;;22.33;19.00;;;;;6.15;58.62;102517.69;5016598;28;45629;-87
2022/01/16 09:39:27;;;;;;;;;25.25;23.25;;;;;6.14;58.87;102502.69;4998914;28;47070;-90
2022/01/16 09:41:54;;;;;;;;;27.67;19.00;;;;;6.22;58.36;102521.22;4992688;28;45517;-89
2022/01/16 09:44:19;;;;;;;;;28.50;26.00;;;;;6.68;57.94;102593.75;5016175;28;45304;-92
2022/01/16 09:46:44;;;;;;;;;27.00;23.00;;;;;6.46;57.50;102536.28;4999248;28;45420;-89
2022/01/16 09:49:10;;;;;;;;;24.00;18.00;;;;;7.20;58.06;102667.19;5013142;28;45376;-92
2022/01/16 09:51:36;;;;;;;;;22.33;17.67;;;;;7.16;58.25;102638.88;5020053;28;45904;-91
2022/01/16 09:54:01;;;;;;;;;23.33;19.33;;;;;6.61;57.54;102528.38;4996833;28;45289;-90
2022/01/16 09:56:27;;;;;;;;;24.33;21.00;;;;;6.66;57.21;102520.44;4998676;28;45540;-90
2022/01/16 09:58:52;;;;;;;;;16.67;16.00;;;;;7.51;57.17;102662.78;5015420;28;46368;-90
2022/01/16 10:01:18;;;;;;;;;21.00;21.00;;;;;6.59;57.02;102484.22;4996073;28;45595;-89
2022/01/16 10:03:46;;;;;;;;;20.00;18.67;;;;;7.92;56.60;102717.63;5015700;28;45518;-90
2022/01/16 10:06:13;;;;;;;;;105.00;89.25;;;;;7.34;56.34;102582.31;4997556;28;45341;-89
2022/01/16 10:08:39;;;;;;;;;13.67;12.67;;;;;6.87;56.34;102487.78;5015204;28;45525;-88
2022/01/16 10:11:23;;;;;;;;;20.00;17.00;;;;;7.61;55.93;102600.00;4998042;28;45341;-90
2022/01/16 10:13:58;;;;;;;;;22.67;20.67;;;;;7.99;56.01;102666.28;5013566;28;45527;-90
2022/01/16 10:16:26;;;;;;;;;20.33;18.00;;;;;6.67;55.75;102453.31;5014828;28;45425;-91
2022/01/16 10:18:51;;;;;;;;;28.00;24.00;;;;;7.79;55.86;102650.38;4997662;28;48164;-90
2022/01/16 10:21:38;;;;;;;;;23.67;20.33;;;;;6.58;56.19;102448.00;5013493;28;45462;-89
2022/01/16 10:24:18;;;;;;;;;20.33;19.33;;;;;7.09;56.50;102577.00;5011603;28;45713;-90
2022/01/16 10:26:45;;;;;;;;;21.67;18.67;;;;;6.76;56.33;102490.41;4993951;28;45498;-90
2022/01/16 10:29:15;;;;;;;;;22.00;19.67;;;;;7.72;56.49;102653.91;4995229;28;48256;-88
2022/01/16 10:31:40;;;;;;;;;19.00;18.67;;;;;7.93;56.27;102674.25;4994140;28;45560;-85
2022/01/16 10:34:34;;;;;;;;;19.33;16.00;;;;;7.47;56.04;102618.56;5013712;28;45745;-90
2022/01/16 10:36:59;;;;;;;;;22.33;18.67;;;;;7.12;56.20;102561.13;5010435;28;45524;-89
2022/01/16 10:39:25;;;;;;;;;19.00;18.00;;;;;7.56;56.70;102649.50;5011166;28;46059;-88
2022/01/16 10:42:19;;;;;;;;;18.00;16.00;;;;;7.90;56.77;102697.28;5012686;28;45424;-87
2022/01/16 10:44:54;;;;;;;;;19.67;18.33;;;;;7.72;56.58;102661.88;5000819;28;45525;-88
2022/01/16 10:47:28;;;;;;;;;19.00;17.33;;;;;7.63;56.69;102647.72;5015253;28;45341;-88
2022/01/16 10:50:13;;;;;;;;;23.67;20.00;;;;;7.94;56.71;102681.34;4995567;28;48381;-88
2022/01/16 10:52:53;;;;;;;;;19.00;17.67;;;;;7.92;56.89;102672.47;5010301;28;45584;-87
2022/01/16 10:55:22;;;;;;;;;20.33;17.67;;;;;7.94;56.93;102686.66;5011044;28;45452;-88
2022/01/16 10:57:47;;;;;;;;;21.00;16.00;;;;;7.66;57.31;102650.41;5014752;28;45727;-91
2022/01/16 11:00:22;;;;;;;;;23.67;18.33;;;;;7.69;57.09;102648.63;5000245;28;47136;-90
2022/01/16 11:02:50;;;;;;;;;18.67;18.67;;;;;7.41;56.73;102589.38;4995281;28;45539;-90
2022/01/16 11:05:23;;;;;;;;;19.67;16.33;;;;;8.11;56.59;102683.06;5008325;28;45511;-90
2022/01/16 11:08:00;;;;;;;;;21.67;18.33;;;;;6.98;56.44;102505.44;4997017;28;45425;-91
2022/01/16 11:10:38;;;;;;;;;22.33;19.00;;;;;7.74;56.25;102630.91;5016001;28;45563;-91
2022/01/16 11:13:06;;;;;;;;;15.00;14.67;;;;;7.56;56.75;102607.03;4998081;28;45675;-90
2022/01/16 11:15:33;;;;;;;;;11.67;11.00;;;;;8.24;56.57;102700.72;5000803;28;45506;-90
2022/01/16 11:17:59;;;;;;;;;18.33;15.33;;;;;7.26;56.38;102526.63;5017969;28;45563;-89
2022/01/16 11:20:36;;;;;;;;;18.67;18.00;;;;;8.18;56.54;102685.69;5021435;28;45476;-91
2022/01/16 11:26:05;;;;;;;;;17.00;15.33;;;;;8.15;56.63;102684.84;4956333;28;45252;-91
2022/01/16 11:28:32;;;;;;;;;19.33;15.00;;;;;8.06;56.82;102643.25;4956639;28;45560;-94
2022/01/16 11:31:03;;;;;;;;;20.33;20.00;;;;;8.02;56.44;102607.84;4956747;28;47219;-90
2022/01/16 11:33:30;;;;;;;;;21.67;18.33;;;;;8.08;56.18;102609.59;4951881;28;46487;-94
2022/01/16 11:36:04;;;;;;;;;20.67;19.67;;;;;8.16;56.10;102628.16;4955572;28;45681;-88
2022/01/16 11:38:35;;;;;;;;;25.33;20.33;;;;;8.10;55.96;102618.47;4956818;28;45581;-88
2022/01/16 11:41:15;;;;;;;;;24.00;21.00;;;;;8.19;56.08;102633.47;4959733;28;45432;-96
2022/01/16 11:43:48;;;;;;;;;26.33;21.33;;;;;7.12;56.15;102468.31;4945518;28;45485;-95
2022/01/16 11:50:27;;;;;;;;;;;;;;;;;;;;;
2022/01/16 11:53:19;;;;;;;;;21.00;19.67;;;;;6.96;57.00;102462.13;4933061;28;75021;-90
2022/01/16 11:55:45;;;;;;;;;18.67;17.33;;;;;6.92;56.70;102444.47;4899673;29;45454;-94
2022/01/16 11:58:10;;;;;;;;;17.00;17.00;;;;;7.02;57.13;102485.09;4895351;29;45357;-93
2022/01/16 12:00:44;;;;;;;;;20.00;20.00;;;;;7.83;57.35;102611.44;4903033;29;45300;-93
2022/01/16 12:06:38;;;;;;;;;16.00;16.00;;;;;8.12;57.62;102677.75;4916174;28;45514;-87
2022/01/16 12:09:11;;;;;;;;;24.33;20.33;;;;;6.86;57.79;102478.94;4887483;29;45326;-86
2022/01/16 12:11:38;;;;;;;;;23.00;21.00;;;;;7.97;58.20;102685.75;4903907;28;45589;-86